sensor_id;sensor_type;location;lat;lon;timestamp;P1;durP1;ratioP1;P2;durP2;ratioP2
3201;SDS011;34843;48.744;8.958;2022-08-19T00:01:52;21.43;;;15.40;;
3201;SDS011;34843;48.744;8.958;2022-08-19T00:04:21;20.63;;;14.50;;
3201;SDS011;34843;48.744;8.958;2022-08-19T00:06:50;21.77;;;14.53;;
3201;SDS011;34843;48.744;8.958;2022-08-19T00:09:17;18.37;;;12.80;;
3201;SDS011;34843;48.744;8.958;2022-08-19T00:11:44;17.63;;;13.10;;
3201;SDS011;34843;48.744;8.958;2022-08-19T00:14:11;21.80;;;13.37;;
3201;SDS011;34843;48.744;8.958;2022-08-19T00:16:40;21.53;;;13.20;;
3201;SDS011;34843;48.744;8.958;2022-08-19T00:19:06;21.80;;;14.53;;
3201;SDS011;34843;48.744;8.958;2022-08-19T00:21:32;24.87;;;15.07;;
3201;SDS011;34843;48.744;8.958;2022-08-19T00:24:04;24.17;;;16.20;;
3201;SDS011;34843;48.744;8.958;2022-08-19T00:26:33;19.80;;;13.47;;
3201;SDS011;34843;48.744;8.958;2022-08-19T00:29:00;33.00;;;15.50;;
3201;SDS011;34843;48.744;8.958;2022-08-19T00:31:26;28.93;;;14.50;;
3201;SDS011;34843;48.744;8.958;2022-08-19T00:33:52;18.00;;;14.70;;
3201;SDS011;34843;48.744;8.958;2022-08-19T00:36:18;22.73;;;14.17;;
3201;SDS011;34843;48.744;8.958;2022-08-19T00:38:45;22.50;;;13.90;;
3201;SDS011;34843;48.744;8.958;2022-08-19T00:41:15;27.83;;;15.40;;
3201;SDS011;34843;48.744;8.958;2022-08-19T00:43:55;21.70;;;15.87;;
3201;SDS011;34843;48.744;8.958;2022-08-19T00:46:30;21.83;;;15.27;;
3201;SDS011;34843;48.744;8.958;2022-08-19T00:48:58;22.53;;;15.13;;
3201;SDS011;34843;48.744;8.958;2022-08-19T00:51:25;25.00;;;15.50;;
3201;SDS011;34843;48.744;8.958;2022-08-19T00:53:54;27.23;;;15.30;;
3201;SDS011;34843;48.744;8.958;2022-08-19T00:56:22;24.40;;;15.77;;
3201;SDS011;34843;48.744;8.958;2022-08-19T00:58:48;23.27;;;15.97;;
3201;SDS011;34843;48.744;8.958;2022-08-19T01:01:14;27.27;;;15.60;;
3201;SDS011;34843;48.744;8.958;2022-08-19T01:03:40;23.27;;;15.20;;
3201;SDS011;34843;48.744;8.958;2022-08-19T01:06:06;21.87;;;14.73;;
3201;SDS011;34843;48.744;8.958;2022-08-19T01:08:32;21.07;;;14.97;;
3201;SDS011;34843;48.744;8.958;2022-08-19T01:10:58;22.97;;;14.40;;
3201;SDS011;34843;48.744;8.958;2022-08-19T01:13:29;19.33;;;14.57;;
3201;SDS011;34843;48.744;8.958;2022-08-19T01:15:59;19.53;;;15.10;;
3201;SDS011;34843;48.744;8.958;2022-08-19T01:18:29;20.67;;;16.10;;
3201;SDS011;34843;48.744;8.958;2022-08-19T01:20:56;21.70;;;16.07;;
3201;SDS011;34843;48.744;8.958;2022-08-19T01:23:26;24.50;;;16.20;;
3201;SDS011;34843;48.744;8.958;2022-08-19T01:26:08;23.77;;;15.30;;
3201;SDS011;34843;48.744;8.958;2022-08-19T01:28:36;23.03;;;17.10;;
3201;SDS011;34843;48.744;8.958;2022-08-19T01:31:02;29.43;;;16.10;;
3201;SDS011;34843;48.744;8.958;2022-08-19T01:33:28;24.03;;;16.10;;
3201;SDS011;34843;48.744;8.958;2022-08-19T01:36:02;22.27;;;15.53;;
3201;SDS011;34843;48.744;8.958;2022-08-19T01:38:38;27.83;;;17.10;;
3201;SDS011;34843;48.744;8.958;2022-08-19T01:41:06;23.40;;;15.10;;
3201;SDS011;34843;48.744;8.958;2022-08-19T01:43:32;26.07;;;15.93;;
3201;SDS011;34843;48.744;8.958;2022-08-19T01:45:58;34.73;;;18.07;;
3201;SDS011;34843;48.744;8.958;2022-08-19T01:48:24;26.30;;;16.50;;
3201;SDS011;34843;48.744;8.958;2022-08-19T01:50:49;28.50;;;15.80;;
3201;SDS011;34843;48.744;8.958;2022-08-19T01:53:15;24.40;;;17.03;;
3201;SDS011;34843;48.744;8.958;2022-08-19T01:55:41;23.90;;;16.50;;
3201;SDS011;34843;48.744;8.958;2022-08-19T01:58:11;31.77;;;16.90;;
3201;SDS011;34843;48.744;8.958;2022-08-19T02:00:40;25.63;;;16.73;;
3201;SDS011;34843;48.744;8.958;2022-08-19T02:03:06;27.50;;;17.87;;
3201;SDS011;34843;48.744;8.958;2022-08-19T02:05:34;24.80;;;18.33;;
3201;SDS011;34843;48.744;8.958;2022-08-19T02:08:00;26.40;;;17.73;;
3201;SDS011;34843;48.744;8.958;2022-08-19T02:10:26;27.77;;;18.57;;
3201;SDS011;34843;48.744;8.958;2022-08-19T02:12:51;24.57;;;16.93;;
3201;SDS011;34843;48.744;8.958;2022-08-19T02:15:18;29.57;;;17.77;;
3201;SDS011;34843;48.744;8.958;2022-08-19T02:17:45;32.57;;;18.63;;
3201;SDS011;34843;48.744;8.958;2022-08-19T02:20:10;25.17;;;16.43;;
3201;SDS011;34843;48.744;8.958;2022-08-19T02:22:37;26.37;;;17.20;;
3201;SDS011;34843;48.744;8.958;2022-08-19T02:25:06;27.73;;;16.33;;
3201;SDS011;34843;48.744;8.958;2022-08-19T02:27:32;28.90;;;16.20;;
3201;SDS011;34843;48.744;8.958;2022-08-19T02:29:58;26.60;;;19.53;;
3201;SDS011;34843;48.744;8.958;2022-08-19T02:32:24;25.63;;;17.73;;
3201;SDS011;34843;48.744;8.958;2022-08-19T02:34:50;25.20;;;18.63;;
3201;SDS011;34843;48.744;8.958;2022-08-19T02:37:15;23.03;;;16.77;;
3201;SDS011;34843;48.744;8.958;2022-08-19T02:40:00;27.30;;;18.00;;
3201;SDS011;34843;48.744;8.958;2022-08-19T02:42:26;28.13;;;18.40;;
3201;SDS011;34843;48.744;8.958;2022-08-19T02:44:51;24.70;;;18.17;;
3201;SDS011;34843;48.744;8.958;2022-08-19T02:47:17;29.47;;;18.00;;
3201;SDS011;34843;48.744;8.958;2022-08-19T02:49:44;31.07;;;19.30;;
3201;SDS011;34843;48.744;8.958;2022-08-19T02:52:10;26.70;;;17.87;;
3201;SDS011;34843;48.744;8.958;2022-08-19T02:54:36;32.00;;;18.47;;
3201;SDS011;34843;48.744;8.958;2022-08-19T02:57:03;30.97;;;20.07;;
3201;SDS011;34843;48.744;8.958;2022-08-19T02:59:30;27.30;;;17.53;;
3201;SDS011;34843;48.744;8.958;2022-08-19T03:01:56;27.23;;;17.80;;
3201;SDS011;34843;48.744;8.958;2022-08-19T03:04:21;29.07;;;18.93;;
3201;SDS011;34843;48.744;8.958;2022-08-19T03:06:48;29.57;;;18.37;;
3201;SDS011;34843;48.744;8.958;2022-08-19T03:09:14;25.60;;;18.30;;
3201;SDS011;34843;48.744;8.958;2022-08-19T03:11:40;37.50;;;19.20;;
3201;SDS011;34843;48.744;8.958;2022-08-19T03:14:06;31.60;;;19.47;;
3201;SDS011;34843;48.744;8.958;2022-08-19T03:16:34;35.00;;;21.67;;
3201;SDS011;34843;48.744;8.958;2022-08-19T03:19:05;27.27;;;18.90;;
3201;SDS011;34843;48.744;8.958;2022-08-19T03:21:31;33.00;;;21.60;;
3201;SDS011;34843;48.744;8.958;2022-08-19T03:24:00;30.23;;;19.90;;
3201;SDS011;34843;48.744;8.958;2022-08-19T03:26:27;29.20;;;20.07;;
3201;SDS011;34843;48.744;8.958;2022-08-19T03:28:54;34.03;;;21.10;;
3201;SDS011;34843;48.744;8.958;2022-08-19T03:31:20;35.20;;;20.70;;
3201;SDS011;34843;48.744;8.958;2022-08-19T03:33:50;35.50;;;21.50;;
3201;SDS011;34843;48.744;8.958;2022-08-19T03:36:20;31.67;;;20.27;;
3201;SDS011;34843;48.744;8.958;2022-08-19T03:38:51;41.70;;;21.80;;
3201;SDS011;34843;48.744;8.958;2022-08-19T03:41:20;33.13;;;21.13;;
3201;SDS011;34843;48.744;8.958;2022-08-19T03:43:48;38.83;;;21.60;;
3201;SDS011;34843;48.744;8.958;2022-08-19T03:46:15;32.37;;;21.20;;
3201;SDS011;34843;48.744;8.958;2022-08-19T03:48:45;31.40;;;22.20;;
3201;SDS011;34843;48.744;8.958;2022-08-19T03:51:16;31.37;;;21.43;;
3201;SDS011;34843;48.744;8.958;2022-08-19T03:53:47;33.23;;;20.93;;
3201;SDS011;34843;48.744;8.958;2022-08-19T03:56:12;38.47;;;24.97;;
3201;SDS011;34843;48.744;8.958;2022-08-19T03:58:39;29.90;;;21.33;;
3201;SDS011;34843;48.744;8.958;2022-08-19T04:01:08;31.60;;;22.50;;
3201;SDS011;34843;48.744;8.958;2022-08-19T04:03:36;33.87;;;23.10;;
3201;SDS011;34843;48.744;8.958;2022-08-19T04:06:12;33.33;;;21.80;;
3201;SDS011;34843;48.744;8.958;2022-08-19T04:08:40;30.37;;;21.07;;
3201;SDS011;34843;48.744;8.958;2022-08-19T04:11:07;31.60;;;21.87;;
3201;SDS011;34843;48.744;8.958;2022-08-19T04:13:36;37.20;;;21.67;;
3201;SDS011;34843;48.744;8.958;2022-08-19T04:16:03;36.97;;;23.30;;
3201;SDS011;34843;48.744;8.958;2022-08-19T04:18:30;36.27;;;23.47;;
3201;SDS011;34843;48.744;8.958;2022-08-19T04:20:57;37.30;;;23.60;;
3201;SDS011;34843;48.744;8.958;2022-08-19T04:23:23;35.97;;;22.17;;
3201;SDS011;34843;48.744;8.958;2022-08-19T04:25:49;37.40;;;23.43;;
3201;SDS011;34843;48.744;8.958;2022-08-19T04:28:15;39.17;;;22.80;;
3201;SDS011;34843;48.744;8.958;2022-08-19T04:30:44;32.43;;;23.33;;
3201;SDS011;34843;48.744;8.958;2022-08-19T04:33:15;35.17;;;22.23;;
3201;SDS011;34843;48.744;8.958;2022-08-19T04:35:44;34.50;;;21.53;;
3201;SDS011;34843;48.744;8.958;2022-08-19T04:38:13;41.43;;;25.20;;
3201;SDS011;34843;48.744;8.958;2022-08-19T04:40:40;31.37;;;22.13;;
3201;SDS011;34843;48.744;8.958;2022-08-19T04:43:29;36.20;;;21.73;;
3201;SDS011;34843;48.744;8.958;2022-08-19T04:45:55;30.90;;;21.57;;
3201;SDS011;34843;48.744;8.958;2022-08-19T04:48:22;35.83;;;22.77;;
3201;SDS011;34843;48.744;8.958;2022-08-19T04:50:54;34.17;;;23.40;;
3201;SDS011;34843;48.744;8.958;2022-08-19T04:53:28;39.47;;;23.37;;
3201;SDS011;34843;48.744;8.958;2022-08-19T04:55:55;37.50;;;23.03;;
3201;SDS011;34843;48.744;8.958;2022-08-19T04:58:23;39.50;;;23.43;;
3201;SDS011;34843;48.744;8.958;2022-08-19T05:00:50;42.60;;;23.40;;
3201;SDS011;34843;48.744;8.958;2022-08-19T05:03:16;37.27;;;23.87;;
3201;SDS011;34843;48.744;8.958;2022-08-19T05:05:42;34.87;;;22.40;;
3201;SDS011;34843;48.744;8.958;2022-08-19T05:08:13;40.23;;;23.87;;
3201;SDS011;34843;48.744;8.958;2022-08-19T05:10:45;32.77;;;22.03;;
3201;SDS011;34843;48.744;8.958;2022-08-19T05:13:13;38.27;;;23.03;;
3201;SDS011;34843;48.744;8.958;2022-08-19T05:15:39;38.07;;;25.23;;
3201;SDS011;34843;48.744;8.958;2022-08-19T05:18:05;35.90;;;24.00;;
3201;SDS011;34843;48.744;8.958;2022-08-19T05:20:49;34.67;;;25.07;;
3201;SDS011;34843;48.744;8.958;2022-08-19T05:23:33;38.70;;;24.47;;
3201;SDS011;34843;48.744;8.958;2022-08-19T05:25:59;37.90;;;23.60;;
3201;SDS011;34843;48.744;8.958;2022-08-19T05:28:24;34.07;;;20.97;;
3201;SDS011;34843;48.744;8.958;2022-08-19T05:30:50;38.20;;;23.37;;
3201;SDS011;34843;48.744;8.958;2022-08-19T05:33:16;36.97;;;23.10;;
3201;SDS011;34843;48.744;8.958;2022-08-19T05:35:42;43.63;;;23.40;;
3201;SDS011;34843;48.744;8.958;2022-08-19T05:38:09;37.57;;;22.83;;
3201;SDS011;34843;48.744;8.958;2022-08-19T05:40:36;39.90;;;23.10;;
3201;SDS011;34843;48.744;8.958;2022-08-19T05:43:04;42.20;;;22.40;;
3201;SDS011;34843;48.744;8.958;2022-08-19T05:45:30;38.13;;;23.17;;
3201;SDS011;34843;48.744;8.958;2022-08-19T05:47:56;33.27;;;22.80;;
3201;SDS011;34843;48.744;8.958;2022-08-19T05:50:23;37.63;;;23.90;;
3201;SDS011;34843;48.744;8.958;2022-08-19T05:52:51;32.27;;;22.53;;
3201;SDS011;34843;48.744;8.958;2022-08-19T05:55:17;34.43;;;22.90;;
3201;SDS011;34843;48.744;8.958;2022-08-19T05:57:47;34.30;;;22.00;;
3201;SDS011;34843;48.744;8.958;2022-08-19T06:00:13;35.30;;;22.70;;
3201;SDS011;34843;48.744;8.958;2022-08-19T06:02:39;35.37;;;23.70;;
3201;SDS011;34843;48.744;8.958;2022-08-19T06:05:05;37.90;;;22.50;;
3201;SDS011;34843;48.744;8.958;2022-08-19T06:07:33;31.87;;;21.50;;
3201;SDS011;34843;48.744;8.958;2022-08-19T06:10:04;38.90;;;22.93;;
3201;SDS011;34843;48.744;8.958;2022-08-19T06:12:32;38.80;;;22.63;;
3201;SDS011;34843;48.744;8.958;2022-08-19T06:15:17;34.57;;;22.47;;
3201;SDS011;34843;48.744;8.958;2022-08-19T06:17:43;35.60;;;25.07;;
3201;SDS011;34843;48.744;8.958;2022-08-19T06:20:12;37.50;;;23.03;;
3201;SDS011;34843;48.744;8.958;2022-08-19T06:22:39;33.93;;;21.60;;
3201;SDS011;34843;48.744;8.958;2022-08-19T06:25:06;34.10;;;21.70;;
3201;SDS011;34843;48.744;8.958;2022-08-19T06:27:34;35.97;;;22.67;;
3201;SDS011;34843;48.744;8.958;2022-08-19T06:30:00;37.03;;;24.60;;
3201;SDS011;34843;48.744;8.958;2022-08-19T06:32:26;34.57;;;22.47;;
3201;SDS011;34843;48.744;8.958;2022-08-19T06:34:51;32.93;;;21.17;;
3201;SDS011;34843;48.744;8.958;2022-08-19T06:37:17;41.10;;;23.67;;
3201;SDS011;34843;48.744;8.958;2022-08-19T06:39:43;31.13;;;20.47;;
3201;SDS011;34843;48.744;8.958;2022-08-19T06:42:10;32.47;;;21.80;;
3201;SDS011;34843;48.744;8.958;2022-08-19T06:44:41;37.20;;;22.30;;
3201;SDS011;34843;48.744;8.958;2022-08-19T06:47:10;39.97;;;24.07;;
3201;SDS011;34843;48.744;8.958;2022-08-19T06:49:37;36.33;;;21.60;;
3201;SDS011;34843;48.744;8.958;2022-08-19T06:52:03;34.27;;;20.27;;
3201;SDS011;34843;48.744;8.958;2022-08-19T06:54:30;31.90;;;20.20;;
3201;SDS011;34843;48.744;8.958;2022-08-19T06:56:59;32.50;;;22.20;;
3201;SDS011;34843;48.744;8.958;2022-08-19T06:59:29;26.50;;;18.73;;
3201;SDS011;34843;48.744;8.958;2022-08-19T07:01:57;28.37;;;20.67;;
3201;SDS011;34843;48.744;8.958;2022-08-19T07:04:25;32.83;;;22.10;;
3201;SDS011;34843;48.744;8.958;2022-08-19T07:06:59;28.03;;;20.20;;
3201;SDS011;34843;48.744;8.958;2022-08-19T07:09:27;34.30;;;19.97;;
3201;SDS011;34843;48.744;8.958;2022-08-19T07:11:53;25.20;;;18.37;;
3201;SDS011;34843;48.744;8.958;2022-08-19T07:14:24;29.33;;;19.67;;
3201;SDS011;34843;48.744;8.958;2022-08-19T07:16:52;32.00;;;19.97;;
3201;SDS011;34843;48.744;8.958;2022-08-19T07:19:20;29.00;;;20.20;;
3201;SDS011;34843;48.744;8.958;2022-08-19T07:21:49;27.10;;;18.40;;
3201;SDS011;34843;48.744;8.958;2022-08-19T07:24:17;27.87;;;19.27;;
3201;SDS011;34843;48.744;8.958;2022-08-19T07:26:44;28.80;;;20.10;;
3201;SDS011;34843;48.744;8.958;2022-08-19T07:29:10;28.73;;;19.37;;
3201;SDS011;34843;48.744;8.958;2022-08-19T07:31:37;31.60;;;20.27;;
3201;SDS011;34843;48.744;8.958;2022-08-19T07:34:04;28.63;;;19.20;;
3201;SDS011;34843;48.744;8.958;2022-08-19T07:36:35;28.97;;;19.93;;
3201;SDS011;34843;48.744;8.958;2022-08-19T07:39:05;34.20;;;18.97;;
3201;SDS011;34843;48.744;8.958;2022-08-19T07:41:34;28.60;;;19.93;;
3201;SDS011;34843;48.744;8.958;2022-08-19T07:44:01;30.30;;;17.83;;
3201;SDS011;34843;48.744;8.958;2022-08-19T07:46:29;26.10;;;19.47;;
3201;SDS011;34843;48.744;8.958;2022-08-19T07:48:56;23.60;;;17.43;;
3201;SDS011;34843;48.744;8.958;2022-08-19T07:51:22;26.83;;;18.00;;
3201;SDS011;34843;48.744;8.958;2022-08-19T07:53:48;29.53;;;20.37;;
3201;SDS011;34843;48.744;8.958;2022-08-19T07:56:16;25.53;;;18.33;;
3201;SDS011;34843;48.744;8.958;2022-08-19T07:58:43;25.30;;;17.30;;
3201;SDS011;34843;48.744;8.958;2022-08-19T08:01:13;22.10;;;17.07;;
3201;SDS011;34843;48.744;8.958;2022-08-19T08:03:40;29.87;;;18.47;;
3201;SDS011;34843;48.744;8.958;2022-08-19T08:06:25;24.57;;;17.70;;
3201;SDS011;34843;48.744;8.958;2022-08-19T08:09:10;26.30;;;17.27;;
3201;SDS011;34843;48.744;8.958;2022-08-19T08:11:40;27.53;;;18.10;;
3201;SDS011;34843;48.744;8.958;2022-08-19T08:14:07;29.60;;;18.37;;
3201;SDS011;34843;48.744;8.958;2022-08-19T08:16:37;27.27;;;20.67;;
3201;SDS011;34843;48.744;8.958;2022-08-19T08:19:04;27.70;;;18.57;;
3201;SDS011;34843;48.744;8.958;2022-08-19T08:21:30;23.10;;;16.70;;
3201;SDS011;34843;48.744;8.958;2022-08-19T08:23:57;22.83;;;15.93;;
3201;SDS011;34843;48.744;8.958;2022-08-19T08:26:23;29.90;;;17.40;;
3201;SDS011;34843;48.744;8.958;2022-08-19T08:28:49;24.23;;;16.40;;
3201;SDS011;34843;48.744;8.958;2022-08-19T08:31:15;21.90;;;16.97;;
3201;SDS011;34843;48.744;8.958;2022-08-19T08:33:43;25.50;;;16.17;;
3201;SDS011;34843;48.744;8.958;2022-08-19T08:36:09;26.90;;;16.97;;
3201;SDS011;34843;48.744;8.958;2022-08-19T08:38:36;24.17;;;16.93;;
3201;SDS011;34843;48.744;8.958;2022-08-19T08:41:06;26.70;;;17.07;;
3201;SDS011;34843;48.744;8.958;2022-08-19T08:43:44;24.27;;;16.50;;
3201;SDS011;34843;48.744;8.958;2022-08-19T08:48:52;23.10;;;15.53;;
3201;SDS011;34843;48.744;8.958;2022-08-19T08:51:29;23.20;;;17.00;;
3201;SDS011;34843;48.744;8.958;2022-08-19T08:54:07;21.90;;;16.17;;
3201;SDS011;34843;48.744;8.958;2022-08-19T08:56:37;27.43;;;16.27;;
3201;SDS011;34843;48.744;8.958;2022-08-19T08:59:05;21.23;;;16.30;;
3201;SDS011;34843;48.744;8.958;2022-08-19T09:01:37;22.77;;;16.23;;
3201;SDS011;34843;48.744;8.958;2022-08-19T09:04:06;25.07;;;15.63;;
3201;SDS011;34843;48.744;8.958;2022-08-19T09:06:40;20.70;;;14.93;;
3201;SDS011;34843;48.744;8.958;2022-08-19T09:15:04;22.50;;;15.83;;
3201;SDS011;34843;48.744;8.958;2022-08-19T09:17:35;18.80;;;14.10;;
3201;SDS011;34843;48.744;8.958;2022-08-19T09:20:24;22.33;;;16.60;;
3201;SDS011;34843;48.744;8.958;2022-08-19T09:22:49;19.43;;;15.63;;
3201;SDS011;34843;48.744;8.958;2022-08-19T09:25:16;20.47;;;17.20;;
3201;SDS011;34843;48.744;8.958;2022-08-19T09:27:45;20.90;;;16.17;;
3201;SDS011;34843;48.744;8.958;2022-08-19T09:30:13;21.17;;;14.83;;
3201;SDS011;34843;48.744;8.958;2022-08-19T09:32:42;20.10;;;16.13;;
3201;SDS011;34843;48.744;8.958;2022-08-19T09:35:09;20.43;;;15.33;;
3201;SDS011;34843;48.744;8.958;2022-08-19T09:37:34;23.07;;;16.03;;
3201;SDS011;34843;48.744;8.958;2022-08-19T09:40:00;20.23;;;15.60;;
3201;SDS011;34843;48.744;8.958;2022-08-19T09:42:26;22.03;;;16.07;;
3201;SDS011;34843;48.744;8.958;2022-08-19T09:44:51;20.47;;;14.60;;
3201;SDS011;34843;48.744;8.958;2022-08-19T09:47:17;21.53;;;16.40;;
3201;SDS011;34843;48.744;8.958;2022-08-19T09:49:42;19.27;;;14.97;;
3201;SDS011;34843;48.744;8.958;2022-08-19T09:52:09;25.70;;;16.13;;
3201;SDS011;34843;48.744;8.958;2022-08-19T09:54:36;24.00;;;16.63;;
3201;SDS011;34843;48.744;8.958;2022-08-19T09:57:02;21.43;;;15.03;;
3201;SDS011;34843;48.744;8.958;2022-08-19T09:59:28;22.50;;;13.47;;
3201;SDS011;34843;48.744;8.958;2022-08-19T10:01:54;17.37;;;14.70;;
3201;SDS011;34843;48.744;8.958;2022-08-19T10:04:20;21.63;;;15.63;;
3201;SDS011;34843;48.744;8.958;2022-08-19T10:06:46;26.80;;;15.93;;
3201;SDS011;34843;48.744;8.958;2022-08-19T10:09:13;20.90;;;14.77;;
3201;SDS011;34843;48.744;8.958;2022-08-19T10:11:41;22.23;;;14.47;;
3201;SDS011;34843;48.744;8.958;2022-08-19T10:14:11;17.63;;;13.87;;
3201;SDS011;34843;48.744;8.958;2022-08-19T10:16:36;18.10;;;13.30;;
3201;SDS011;34843;48.744;8.958;2022-08-19T10:19:03;18.23;;;12.90;;
3201;SDS011;34843;48.744;8.958;2022-08-19T10:21:30;16.30;;;11.97;;
3201;SDS011;34843;48.744;8.958;2022-08-19T10:23:57;17.37;;;12.97;;
3201;SDS011;34843;48.744;8.958;2022-08-19T10:26:26;14.13;;;11.00;;
3201;SDS011;34843;48.744;8.958;2022-08-19T10:28:54;13.87;;;10.17;;
3201;SDS011;34843;48.744;8.958;2022-08-19T10:31:21;16.33;;;11.13;;
3201;SDS011;34843;48.744;8.958;2022-08-19T10:33:48;13.57;;;10.53;;
3201;SDS011;34843;48.744;8.958;2022-08-19T10:36:17;15.10;;;10.70;;
3201;SDS011;34843;48.744;8.958;2022-08-19T10:38:45;13.30;;;10.97;;
3201;SDS011;34843;48.744;8.958;2022-08-19T10:41:19;12.60;;;10.83;;
3201;SDS011;34843;48.744;8.958;2022-08-19T10:43:53;11.67;;;10.10;;
3201;SDS011;34843;48.744;8.958;2022-08-19T10:46:19;15.60;;;9.83;;
3201;SDS011;34843;48.744;8.958;2022-08-19T10:48:46;11.83;;;10.17;;
3201;SDS011;34843;48.744;8.958;2022-08-19T10:51:12;16.70;;;11.40;;
3201;SDS011;34843;48.744;8.958;2022-08-19T10:53:56;11.50;;;10.07;;
3201;SDS011;34843;48.744;8.958;2022-08-19T10:56:23;13.37;;;11.07;;
3201;SDS011;34843;48.744;8.958;2022-08-19T10:59:08;14.40;;;12.07;;
3201;SDS011;34843;48.744;8.958;2022-08-19T11:01:35;15.67;;;11.03;;
3201;SDS011;34843;48.744;8.958;2022-08-19T11:04:01;15.60;;;10.50;;
3201;SDS011;34843;48.744;8.958;2022-08-19T11:06:28;15.77;;;11.27;;
3201;SDS011;34843;48.744;8.958;2022-08-19T11:08:55;14.80;;;11.03;;
3201;SDS011;34843;48.744;8.958;2022-08-19T11:11:21;13.20;;;9.87;;
3201;SDS011;34843;48.744;8.958;2022-08-19T11:13:47;17.10;;;10.00;;
3201;SDS011;34843;48.744;8.958;2022-08-19T11:16:19;12.73;;;9.07;;
3201;SDS011;34843;48.744;8.958;2022-08-19T11:18:51;12.47;;;11.17;;
3201;SDS011;34843;48.744;8.958;2022-08-19T11:21:20;12.37;;;9.60;;
3201;SDS011;34843;48.744;8.958;2022-08-19T11:23:48;14.40;;;9.70;;
3201;SDS011;34843;48.744;8.958;2022-08-19T11:26:17;11.23;;;9.50;;
3201;SDS011;34843;48.744;8.958;2022-08-19T11:28:44;11.80;;;9.87;;
3201;SDS011;34843;48.744;8.958;2022-08-19T11:31:11;10.37;;;8.70;;
3201;SDS011;34843;48.744;8.958;2022-08-19T11:33:38;14.00;;;9.57;;
3201;SDS011;34843;48.744;8.958;2022-08-19T11:36:03;14.40;;;10.03;;
3201;SDS011;34843;48.744;8.958;2022-08-19T11:38:29;10.00;;;8.60;;
3201;SDS011;34843;48.744;8.958;2022-08-19T11:40:58;9.30;;;8.00;;
3201;SDS011;34843;48.744;8.958;2022-08-19T11:43:25;14.00;;;9.03;;
3201;SDS011;34843;48.744;8.958;2022-08-19T11:45:55;10.50;;;8.90;;
3201;SDS011;34843;48.744;8.958;2022-08-19T11:48:21;10.70;;;8.90;;
3201;SDS011;34843;48.744;8.958;2022-08-19T11:50:48;11.70;;;8.37;;
3201;SDS011;34843;48.744;8.958;2022-08-19T11:53:20;12.33;;;8.70;;
3201;SDS011;34843;48.744;8.958;2022-08-19T11:55:47;10.30;;;8.50;;
3201;SDS011;34843;48.744;8.958;2022-08-19T11:58:13;9.53;;;8.63;;
3201;SDS011;34843;48.744;8.958;2022-08-19T12:00:40;10.40;;;8.70;;
3201;SDS011;34843;48.744;8.958;2022-08-19T12:03:06;10.80;;;7.10;;
3201;SDS011;34843;48.744;8.958;2022-08-19T12:05:31;8.90;;;7.77;;
3201;SDS011;34843;48.744;8.958;2022-08-19T12:07:57;8.10;;;7.27;;
3201;SDS011;34843;48.744;8.958;2022-08-19T12:10:23;8.80;;;7.77;;
3201;SDS011;34843;48.744;8.958;2022-08-19T12:12:49;8.60;;;7.80;;
3201;SDS011;34843;48.744;8.958;2022-08-19T12:15:14;8.13;;;7.33;;
3201;SDS011;34843;48.744;8.958;2022-08-19T12:17:40;7.43;;;6.83;;
3201;SDS011;34843;48.744;8.958;2022-08-19T12:20:07;10.07;;;7.67;;
3201;SDS011;34843;48.744;8.958;2022-08-19T12:22:38;9.10;;;8.20;;
3201;SDS011;34843;48.744;8.958;2022-08-19T12:25:06;7.63;;;6.93;;
3201;SDS011;34843;48.744;8.958;2022-08-19T12:27:32;9.30;;;7.57;;
3201;SDS011;34843;48.744;8.958;2022-08-19T12:29:58;7.80;;;7.00;;
3201;SDS011;34843;48.744;8.958;2022-08-19T12:32:26;7.97;;;7.07;;
3201;SDS011;34843;48.744;8.958;2022-08-19T12:34:51;7.83;;;7.17;;
3201;SDS011;34843;48.744;8.958;2022-08-19T12:37:17;8.77;;;8.07;;
3201;SDS011;34843;48.744;8.958;2022-08-19T12:39:43;7.50;;;6.80;;
3201;SDS011;34843;48.744;8.958;2022-08-19T12:42:12;9.00;;;7.10;;
3201;SDS011;34843;48.744;8.958;2022-08-19T12:44:39;9.50;;;8.70;;
3201;SDS011;34843;48.744;8.958;2022-08-19T12:47:07;7.90;;;7.10;;
3201;SDS011;34843;48.744;8.958;2022-08-19T12:49:34;9.90;;;8.53;;
3201;SDS011;34843;48.744;8.958;2022-08-19T12:52:01;8.47;;;7.67;;
3201;SDS011;34843;48.744;8.958;2022-08-19T12:54:32;8.17;;;7.20;;
3201;SDS011;34843;48.744;8.958;2022-08-19T12:56:59;9.30;;;8.50;;
3201;SDS011;34843;48.744;8.958;2022-08-19T12:59:24;10.27;;;8.50;;
3201;SDS011;34843;48.744;8.958;2022-08-19T13:01:50;9.20;;;8.27;;
3201;SDS011;34843;48.744;8.958;2022-08-19T13:04:16;8.60;;;7.70;;
3201;SDS011;34843;48.744;8.958;2022-08-19T13:06:43;8.03;;;7.33;;
3201;SDS011;34843;48.744;8.958;2022-08-19T13:09:09;8.07;;;7.23;;
3201;SDS011;34843;48.744;8.958;2022-08-19T13:11:35;15.53;;;8.90;;
3201;SDS011;34843;48.744;8.958;2022-08-19T13:14:02;8.30;;;7.53;;
3201;SDS011;34843;48.744;8.958;2022-08-19T13:16:28;8.17;;;7.40;;
3201;SDS011;34843;48.744;8.958;2022-08-19T13:18:55;6.93;;;6.30;;
3201;SDS011;34843;48.744;8.958;2022-08-19T13:21:23;8.20;;;7.40;;
3201;SDS011;34843;48.744;8.958;2022-08-19T13:23:50;6.63;;;6.03;;
3201;SDS011;34843;48.744;8.958;2022-08-19T13:26:17;7.60;;;7.00;;
3201;SDS011;34843;48.744;8.958;2022-08-19T13:28:43;7.70;;;7.00;;
3201;SDS011;34843;48.744;8.958;2022-08-19T13:31:30;7.87;;;7.00;;
3201;SDS011;34843;48.744;8.958;2022-08-19T13:34:16;8.57;;;7.97;;
3201;SDS011;34843;48.744;8.958;2022-08-19T13:36:52;9.47;;;8.57;;
3201;SDS011;34843;48.744;8.958;2022-08-19T13:39:18;10.67;;;9.77;;
3201;SDS011;34843;48.744;8.958;2022-08-19T13:41:44;9.13;;;8.43;;
3201;SDS011;34843;48.744;8.958;2022-08-19T13:44:15;9.87;;;8.97;;
3201;SDS011;34843;48.744;8.958;2022-08-19T13:46:43;9.40;;;8.50;;
3201;SDS011;34843;48.744;8.958;2022-08-19T13:49:09;11.03;;;8.90;;
3201;SDS011;34843;48.744;8.958;2022-08-19T13:51:35;15.03;;;9.87;;
3201;SDS011;34843;48.744;8.958;2022-08-19T13:54:02;11.63;;;8.77;;
3201;SDS011;34843;48.744;8.958;2022-08-19T13:56:27;10.13;;;9.23;;
3201;SDS011;34843;48.744;8.958;2022-08-19T13:58:53;9.60;;;8.77;;
3201;SDS011;34843;48.744;8.958;2022-08-19T14:01:20;9.87;;;8.97;;
3201;SDS011;34843;48.744;8.958;2022-08-19T14:03:47;9.60;;;8.73;;
3201;SDS011;34843;48.744;8.958;2022-08-19T14:06:13;11.83;;;9.43;;
3201;SDS011;34843;48.744;8.958;2022-08-19T14:08:38;10.60;;;9.50;;
3201;SDS011;34843;48.744;8.958;2022-08-19T14:11:06;12.83;;;10.47;;
3201;SDS011;34843;48.744;8.958;2022-08-19T14:13:32;9.80;;;9.00;;
3201;SDS011;34843;48.744;8.958;2022-08-19T14:15:59;11.80;;;9.63;;
3201;SDS011;34843;48.744;8.958;2022-08-19T14:18:24;10.50;;;9.47;;
3201;SDS011;34843;48.744;8.958;2022-08-19T14:20:50;10.40;;;9.40;;
3201;SDS011;34843;48.744;8.958;2022-08-19T14:23:17;10.83;;;9.17;;
3201;SDS011;34843;48.744;8.958;2022-08-19T14:25:43;10.47;;;9.37;;
3201;SDS011;34843;48.744;8.958;2022-08-19T14:28:09;8.80;;;7.93;;
3201;SDS011;34843;48.744;8.958;2022-08-19T14:30:35;10.73;;;9.20;;
3201;SDS011;34843;48.744;8.958;2022-08-19T14:33:03;9.50;;;8.73;;
3201;SDS011;34843;48.744;8.958;2022-08-19T14:35:30;9.17;;;8.33;;
3201;SDS011;34843;48.744;8.958;2022-08-19T14:37:59;9.80;;;8.80;;
3201;SDS011;34843;48.744;8.958;2022-08-19T14:40:26;9.60;;;8.70;;
3201;SDS011;34843;48.744;8.958;2022-08-19T14:42:54;10.70;;;9.70;;
3201;SDS011;34843;48.744;8.958;2022-08-19T14:45:24;10.37;;;9.33;;
3201;SDS011;34843;48.744;8.958;2022-08-19T14:47:53;12.50;;;9.03;;
3201;SDS011;34843;48.744;8.958;2022-08-19T14:50:19;12.27;;;8.20;;
3201;SDS011;34843;48.744;8.958;2022-08-19T14:52:48;10.03;;;9.00;;
3201;SDS011;34843;48.744;8.958;2022-08-19T14:55:17;9.27;;;8.47;;